Time;durP1;ratioP1;P1;durP2;ratioP2;P2;SDS_P1;SDS_P2;PMS_P1;PMS_P2;Temp;Humidity;BMP_temperature;BMP_pressure;BME280_temperature;BME280_humidity;BME280_pressure;Samples;Min_cycle;Max_cycle;Signal;HPM_P1;HPM_P2
2021/03/31 00:00:20;;;;;;;12.33;5.40;;;;;;;;;;5000373;28;20528;-86
2021/03/31 00:03:24;;;;;;;11.07;5.80;;;;;;;;;;5000438;28;20181;-86
2021/03/31 00:06:28;;;;;;;8.47;5.47;;;;;;;;;;5000097;28;20180;-86
2021/03/31 00:09:32;;;;;;;7.47;5.13;;;;;;;;;;5010884;28;20590;-86
2021/03/31 00:12:36;;;;;;;9.27;5.77;;;;;;;;;;5000083;28;20185;-86
2021/03/31 00:15:41;;;;;;;10.80;6.40;;;;;;;;;;4999710;28;20221;-86
2021/03/31 00:18:46;;;;;;;11.17;6.37;;;;;;;;;;4999666;28;20224;-86
2021/03/31 00:21:50;;;;;;;9.47;5.63;;;;;;;;;;5010831;28;20181;-86
2021/03/31 00:24:54;;;;;;;11.50;6.40;;;;;;;;;;5010966;28;20184;-86
2021/03/31 00:27:58;;;;;;;8.63;5.83;;;;;;;;;;4999646;28;20699;-86
2021/03/31 00:31:02;;;;;;;10.40;5.90;;;;;;;;;;5010641;28;20193;-86
2021/03/31 00:34:06;;;;;;;7.43;5.47;;;;;;;;;;4999379;28;20196;-86
2021/03/31 00:37:10;;;;;;;9.93;6.33;;;;;;;;;;5010527;28;20208;-86
2021/03/31 00:40:18;;;;;;;9.37;6.47;;;;;;;;;;4999732;28;20181;-86
2021/03/31 00:43:23;;;;;;;11.00;5.97;;;;;;;;;;4999642;28;20174;-86
2021/03/31 00:46:27;;;;;;;11.97;6.10;;;;;;;;;;4999528;28;20181;-86
2021/03/31 00:49:32;;;;;;;9.47;6.10;;;;;;;;;;4999389;28;20556;-86
2021/03/31 00:52:38;;;;;;;10.77;5.97;;;;;;;;;;4999012;28;20671;-86
2021/03/31 00:55:42;;;;;;;8.70;5.40;;;;;;;;;;5021824;28;20200;-86
2021/03/31 00:58:46;;;;;;;9.00;6.27;;;;;;;;;;5010323;28;20216;-86
2021/03/31 01:01:51;;;;;;;13.20;6.13;;;;;;;;;;5010525;28;20283;-83
2021/03/31 01:04:55;;;;;;;10.33;6.53;;;;;;;;;;4999358;28;20181;-83
2021/03/31 01:08:00;;;;;;;9.90;6.00;;;;;;;;;;4998922;28;20220;-83
2021/03/31 01:11:04;;;;;;;13.73;6.33;;;;;;;;;;5021459;28;20192;-83
2021/03/31 01:14:33;;;;;;;11.00;6.70;;;;;;;;;;4999112;28;20184;-83
2021/03/31 01:17:52;;;;;;;13.80;6.70;;;;;;;;;;4999136;28;20177;-83
2021/03/31 01:21:21;;;;;;;13.47;5.87;;;;;;;;;;5021384;28;20181;-83
2021/03/31 01:25:14;;;;;;;14.23;6.50;;;;;;;;;;5021428;28;20623;-83
2021/03/31 01:28:40;;;;;;;11.67;6.40;;;;;;;;;;5021258;28;20228;-83
2021/03/31 01:32:21;;;;;;;13.30;6.57;;;;;;;;;;4999014;28;20177;-83
2021/03/31 01:35:26;;;;;;;9.93;6.03;;;;;;;;;;4964150;28;20179;-83
2021/03/31 01:38:31;;;;;;;10.53;5.90;;;;;;;;;;5021246;28;20695;-83
2021/03/31 01:41:37;;;;;;;9.00;6.27;;;;;;;;;;5002754;28;20177;-83
2021/03/31 01:44:42;;;;;;;9.07;5.93;;;;;;;;;;5025215;28;20181;-82
2021/03/31 01:47:48;;;;;;;9.57;6.53;;;;;;;;;;5025280;28;20214;-83
2021/03/31 01:51:03;;;;;;;14.80;7.20;;;;;;;;;;5025056;28;20185;-83
2021/03/31 01:54:08;;;;;;;11.30;6.00;;;;;;;;;;5025058;28;20533;-83
2021/03/31 01:57:13;;;;;;;10.33;6.40;;;;;;;;;;5013695;28;20675;-83
2021/03/31 02:00:18;;;;;;;8.37;5.77;;;;;;;;;;5002549;28;20733;-83
2021/03/31 02:03:24;;;;;;;11.27;6.07;;;;;;;;;;5002361;28;20177;-83
2021/03/31 02:06:30;;;;;;;13.87;7.00;;;;;;;;;;5024653;28;20177;-83
2021/03/31 02:09:42;;;;;;;12.63;7.40;;;;;;;;;;5002000;28;20220;-83
2021/03/31 02:12:47;;;;;;;11.47;6.87;;;;;;;;;;5002151;28;20181;-83
2021/03/31 02:15:56;;;;;;;12.03;6.03;;;;;;;;;;5002157;28;20213;-83
2021/03/31 02:19:01;;;;;;;9.60;6.30;;;;;;;;;;5013188;28;20213;-82
2021/03/31 02:22:07;;;;;;;13.50;6.47;;;;;;;;;;5036493;28;20201;-82
2021/03/31 02:25:12;;;;;;;9.67;6.50;;;;;;;;;;5013582;28;20192;-83
2021/03/31 02:28:16;;;;;;;15.43;6.80;;;;;;;;;;5012961;28;20552;-83
2021/03/31 02:31:21;;;;;;;11.93;6.93;;;;;;;;;;5013619;28;20620;-82
2021/03/31 02:34:27;;;;;;;11.93;7.13;;;;;;;;;;5001795;28;20540;-82
2021/03/31 02:37:32;;;;;;;12.83;6.83;;;;;;;;;;5024464;28;20595;-83
2021/03/31 02:40:38;;;;;;;11.03;6.70;;;;;;;;;;5024094;28;20517;-82
2021/03/31 02:43:45;;;;;;;11.17;6.77;;;;;;;;;;5024080;28;21078;-82
2021/03/31 02:46:52;;;;;;;9.80;6.80;;;;;;;;;;5001590;28;20535;-82
2021/03/31 02:50:01;;;;;;;14.37;7.37;;;;;;;;;;5012608;28;20181;-83
2021/03/31 02:53:05;;;;;;;13.13;7.30;;;;;;;;;;5023606;28;20184;-83
2021/03/31 02:56:12;;;;;;;11.40;7.40;;;;;;;;;;5023759;28;20212;-82
2021/03/31 02:59:16;;;;;;;10.57;6.70;;;;;;;;;;5012328;28;21173;-82
2021/03/31 03:02:21;;;;;;;13.13;6.80;;;;;;;;;;5023514;28;20181;-83
2021/03/31 03:05:25;;;;;;;10.13;6.40;;;;;;;;;;5001235;28;20181;-83
2021/03/31 03:08:30;;;;;;;11.63;7.17;;;;;;;;;;5000951;28;20217;-86
2021/03/31 03:11:35;;;;;;;12.53;6.50;;;;;;;;;;5023526;28;20177;-83
2021/03/31 03:14:46;;;;;;;11.60;6.60;;;;;;;;;;5012229;28;20539;-82
2021/03/31 03:17:51;;;;;;;9.87;6.70;;;;;;;;;;5012014;28;21209;-82
2021/03/31 03:20:55;;;;;;;12.53;7.10;;;;;;;;;;5023779;28;20604;-82
2021/03/31 03:24:00;;;;;;;8.77;6.10;;;;;;;;;;5000602;28;21165;-82
2021/03/31 03:27:05;;;;;;;9.70;5.90;;;;;;;;;;5023140;28;20891;-83
2021/03/31 03:30:13;;;;;;;13.83;6.43;;;;;;;;;;5023394;28;20536;-82
2021/03/31 03:33:17;;;;;;;13.63;6.20;;;;;;;;;;5000940;28;20556;-82
2021/03/31 03:36:22;;;;;;;10.17;6.30;;;;;;;;;;5000993;28;20596;-83
2021/03/31 03:39:26;;;;;;;11.03;6.73;;;;;;;;;;4999979;28;20979;-82
2021/03/31 03:42:30;;;;;;;11.10;6.00;;;;;;;;;;5009820;28;21142;-83
2021/03/31 03:45:38;;;;;;;10.70;6.57;;;;;;;;;;5011308;28;20583;-83
2021/03/31 03:48:43;;;;;;;11.90;6.83;;;;;;;;;;5011554;28;20615;-82
2021/03/31 03:51:47;;;;;;;13.70;7.70;;;;;;;;;;5022903;28;20548;-83
2021/03/31 03:54:53;;;;;;;12.07;6.97;;;;;;;;;;5011520;28;20540;-83
2021/03/31 03:58:04;;;;;;;9.83;6.37;;;;;;;;;;5010938;28;20655;-83
2021/03/31 04:01:09;;;;;;;11.27;6.67;;;;;;;;;;5011432;28;20536;-82
2021/03/31 04:04:13;;;;;;;12.00;7.30;;;;;;;;;;5011177;28;20548;-82
2021/03/31 04:07:17;;;;;;;9.10;6.13;;;;;;;;;;5022367;28;20599;-83
2021/03/31 04:10:27;;;;;;;13.60;6.40;;;;;;;;;;5063635;23;20833;-81
2021/03/31 04:13:33;;;;;;;10.43;6.47;;;;;;;;;;5062567;28;20539;-81
2021/03/31 04:16:40;;;;;;;15.53;7.13;;;;;;;;;;5062224;28;20649;-80
2021/03/31 04:19:47;;;;;;;9.67;5.97;;;;;;;;;;5037506;28;20626;-81
2021/03/31 04:22:52;;;;;;;10.93;6.50;;;;;;;;;;5054882;28;20539;-80
2021/03/31 04:25:57;;;;;;;10.00;6.30;;;;;;;;;;5053527;28;20535;-80
2021/03/31 04:29:03;;;;;;;12.03;6.30;;;;;;;;;;5022425;28;20654;-81
2021/03/31 04:32:09;;;;;;;15.20;7.37;;;;;;;;;;5022427;28;20599;-80
2021/03/31 04:35:16;;;;;;;10.17;6.10;;;;;;;;;;5022224;28;20548;-80
2021/03/31 04:38:20;;;;;;;8.53;6.13;;;;;;;;;;5021979;28;20591;-81
2021/03/31 04:41:24;;;;;;;13.17;6.90;;;;;;;;;;5033367;28;20544;-81
2021/03/31 04:44:29;;;;;;;16.67;7.20;;;;;;;;;;5021964;28;21070;-80
2021/03/31 04:47:34;;;;;;;14.60;7.03;;;;;;;;;;5022049;28;20536;-80
2021/03/31 04:50:39;;;;;;;11.97;6.53;;;;;;;;;;5033261;28;20544;-80
2021/03/31 04:53:43;;;;;;;12.70;6.70;;;;;;;;;;5021934;28;20540;-80
2021/03/31 04:56:48;;;;;;;12.87;7.73;;;;;;;;;;5044740;28;20626;-80
2021/03/31 04:59:52;;;;;;;17.17;7.80;;;;;;;;;;5041543;28;20622;-80
2021/03/31 05:02:56;;;;;;;12.83;7.83;;;;;;;;;;5052669;28;20598;-80
2021/03/31 05:06:00;;;;;;;11.43;7.63;;;;;;;;;;5041674;28;20543;-80
2021/03/31 05:09:05;;;;;;;13.50;7.70;;;;;;;;;;5052815;28;20630;-80
2021/03/31 05:12:09;;;;;;;18.33;7.37;;;;;;;;;;5041342;28;20548;-80
2021/03/31 05:15:14;;;;;;;11.87;7.23;;;;;;;;;;5040913;28;20594;-80
2021/03/31 05:18:18;;;;;;;12.37;8.40;;;;;;;;;;5040886;28;20650;-81
2021/03/31 05:21:22;;;;;;;11.57;6.83;;;;;;;;;;5041292;28;20539;-80
2021/03/31 05:24:26;;;;;;;13.10;7.07;;;;;;;;;;5030129;28;20535;-80
2021/03/31 05:27:32;;;;;;;12.97;8.07;;;;;;;;;;5041170;28;20547;-80
2021/03/31 05:30:36;;;;;;;12.40;7.43;;;;;;;;;;5052753;28;20547;-81
2021/03/31 05:33:40;;;;;;;15.83;8.20;;;;;;;;;;5029983;28;20543;-80
2021/03/31 05:36:44;;;;;;;23.50;8.80;;;;;;;;;;5052315;28;20602;-80
2021/03/31 05:39:48;;;;;;;24.80;7.50;;;;;;;;;;5041558;28;20626;-80
2021/03/31 05:42:56;;;;;;;22.33;7.73;;;;;;;;;;5029732;28;20535;-80
2021/03/31 05:46:01;;;;;;;17.03;7.27;;;;;;;;;;5041525;28;20539;-80
2021/03/31 05:49:05;;;;;;;15.07;6.97;;;;;;;;;;5040847;28;21176;-81
2021/03/31 05:52:09;;;;;;;16.37;7.50;;;;;;;;;;5041024;28;20555;-80
2021/03/31 05:55:16;;;;;;;15.00;7.90;;;;;;;;;;5052141;28;21168;-80
2021/03/31 05:58:21;;;;;;;11.70;6.90;;;;;;;;;;5052789;28;20215;-81
2021/03/31 06:01:25;;;;;;;17.20;7.47;;;;;;;;;;5041367;28;20202;-81
2021/03/31 06:04:30;;;;;;;18.80;7.27;;;;;;;;;;5041170;28;20176;-80
2021/03/31 06:07:34;;;;;;;15.20;7.13;;;;;;;;;;5041019;28;20184;-80
2021/03/31 06:10:38;;;;;;;18.97;7.90;;;;;;;;;;5029357;28;20192;-81
2021/03/31 06:13:50;;;;;;;27.07;7.83;;;;;;;;;;5040679;28;20200;-81
2021/03/31 06:17:11;;;;;;;23.17;10.40;;;;;;;;;;5029429;28;20634;-81
2021/03/31 06:20:34;;;;;;;14.53;8.23;;;;;;;;;;5063701;28;20220;-81
2021/03/31 06:26:53;;;;;;;14.33;8.57;;;;;;;;;;5055268;28;20243;-80
2021/03/31 06:30:06;;;;;;;11.83;7.70;;;;;;;;;;5055193;28;20554;-81
2021/03/31 06:33:12;;;;;;;16.40;8.10;;;;;;;;;;5044409;28;20180;-81
2021/03/31 06:36:18;;;;;;;14.03;7.57;;;;;;;;;;5056094;28;20184;-80
2021/03/31 06:39:36;;;;;;;16.30;8.37;;;;;;;;;;5043914;28;20706;-80
2021/03/31 06:42:45;;;;;;;14.70;8.20;;;;;;;;;;5044023;28;20176;-80
2021/03/31 06:46:01;;;;;;;14.27;8.17;;;;;;;;;;5055634;28;20196;-80
2021/03/31 06:49:05;;;;;;;14.23;7.60;;;;;;;;;;5032212;28;20211;-80
2021/03/31 06:52:11;;;;;;;14.50;8.13;;;;;;;;;;5044068;28;20518;-80
2021/03/31 06:55:15;;;;;;;17.90;7.60;;;;;;;;;;5032551;28;20180;-80
2021/03/31 06:58:21;;;;;;;19.37;6.83;;;;;;;;;;5043707;28;20216;-81
2021/03/31 07:01:30;;;;;;;14.27;7.90;;;;;;;;;;5032205;28;20180;-80
2021/03/31 07:04:35;;;;;;;12.77;8.03;;;;;;;;;;5055063;28;20177;-80
2021/03/31 07:07:41;;;;;;;14.20;7.90;;;;;;;;;;5055163;28;20176;-80
2021/03/31 07:10:49;;;;;;;13.57;7.57;;;;;;;;;;5054854;28;20184;-81
2021/03/31 07:13:54;;;;;;;20.93;6.57;;;;;;;;;;5043751;28;20176;-80
2021/03/31 07:16:58;;;;;;;15.07;7.47;;;;;;;;;;5032830;28;20180;-80
2021/03/31 07:20:03;;;;;;;13.60;8.07;;;;;;;;;;5054447;28;20690;-81
2021/03/31 07:23:07;;;;;;;11.00;8.17;;;;;;;;;;5042993;28;20200;-81
2021/03/31 07:26:12;;;;;;;13.43;7.87;;;;;;;;;;5043297;28;20180;-81
2021/03/31 07:29:17;;;;;;;21.40;8.80;;;;;;;;;;5054715;28;20589;-81
2021/03/31 07:32:23;;;;;;;15.73;8.93;;;;;;;;;;5054616;28;20181;-81
2021/03/31 07:35:33;;;;;;;13.20;8.47;;;;;;;;;;5054779;28;20184;-81
2021/03/31 07:38:38;;;;;;;16.43;9.20;;;;;;;;;;5053731;28;20570;-81
2021/03/31 07:41:44;;;;;;;13.47;9.17;;;;;;;;;;5054258;28;20635;-81
2021/03/31 07:44:51;;;;;;;21.47;10.20;;;;;;;;;;5055330;28;20177;-81
2021/03/31 07:47:56;;;;;;;18.27;10.33;;;;;;;;;;5042879;28;20657;-81
2021/03/31 07:51:21;;;;;;;18.23;10.23;;;;;;;;;;5065244;28;20203;-81
2021/03/31 07:54:26;;;;;;;21.00;10.40;;;;;;;;;;5054199;28;20511;-81
2021/03/31 07:57:32;;;;;;;17.27;10.27;;;;;;;;;;5043315;28;20650;-81
2021/03/31 08:00:51;;;;;;;13.63;8.83;;;;;;;;;;5054335;28;20527;-81
2021/03/31 08:03:56;;;;;;;18.03;10.17;;;;;;;;;;5055094;28;20184;-81
2021/03/31 08:07:19;;;;;;;20.13;13.00;;;;;;;;;;5065424;28;20184;-81
2021/03/31 08:10:36;;;;;;;14.97;10.10;;;;;;;;;;5053586;28;20231;-81
2021/03/31 08:13:42;;;;;;;17.03;10.00;;;;;;;;;;5042652;28;20187;-81
2021/03/31 08:16:48;;;;;;;13.43;9.40;;;;;;;;;;5054454;28;20633;-81
2021/03/31 08:19:53;;;;;;;18.20;9.03;;;;;;;;;;5053578;28;20216;-81
2021/03/31 08:22:57;;;;;;;17.30;9.43;;;;;;;;;;5053666;28;20180;-81
2021/03/31 08:26:41;;;;;;;19.37;9.53;;;;;;;;;;5054474;28;20176;-81
2021/03/31 08:29:48;;;;;;;19.20;10.50;;;;;;;;;;5041782;28;20215;-81
2021/03/31 08:32:54;;;;;;;15.40;9.13;;;;;;;;;;5053871;28;20206;-81
2021/03/31 08:35:59;;;;;;;15.60;9.67;;;;;;;;;;5042082;28;20200;-80
2021/03/31 08:39:08;;;;;;;13.87;9.30;;;;;;;;;;5030541;28;20705;-81
2021/03/31 08:42:13;;;;;;;13.53;9.57;;;;;;;;;;5053196;28;20176;-81
2021/03/31 08:45:25;;;;;;;14.80;10.40;;;;;;;;;;5053162;28;20180;-81
2021/03/31 08:48:41;;;;;;;18.30;12.10;;;;;;;;;;5041300;28;20184;-81
2021/03/31 08:51:48;;;;;;;18.97;9.90;;;;;;;;;;5041644;28;20646;-81
2021/03/31 08:54:54;;;;;;;18.20;9.63;;;;;;;;;;5053173;28;20180;-81
2021/03/31 08:57:58;;;;;;;16.20;9.20;;;;;;;;;;5052902;28;20200;-81
2021/03/31 09:01:02;;;;;;;14.50;8.93;;;;;;;;;;5053044;28;20176;-82
2021/03/31 09:04:24;;;;;;;16.97;9.40;;;;;;;;;;5041450;28;20180;-81
2021/03/31 09:07:29;;;;;;;16.20;9.40;;;;;;;;;;5053548;28;20631;-81
2021/03/31 09:10:33;;;;;;;18.17;9.43;;;;;;;;;;5040925;28;20219;-82
2021/03/31 09:13:39;;;;;;;64.80;12.30;;;;;;;;;;5041302;28;20176;-82
2021/03/31 09:16:53;;;;;;;17.37;9.57;;;;;;;;;;5052564;28;20202;-82
2021/03/31 09:20:06;;;;;;;11.73;9.03;;;;;;;;;;5052609;28;20228;-82
2021/03/31 09:23:19;;;;;;;13.23;9.13;;;;;;;;;;5041297;28;20662;-82
2021/03/31 09:26:23;;;;;;;14.43;9.00;;;;;;;;;;5029820;28;20176;-82
2021/03/31 09:29:28;;;;;;;19.27;9.73;;;;;;;;;;5052173;28;20212;-82
2021/03/31 09:32:35;;;;;;;15.43;9.00;;;;;;;;;;5041203;28;20181;-82
2021/03/31 09:35:40;;;;;;;11.47;9.07;;;;;;;;;;5029981;28;20202;-82
2021/03/31 09:38:54;;;;;;;33.67;9.40;;;;;;;;;;5052509;28;20573;-82
2021/03/31 09:41:58;;;;;;;14.10;8.80;;;;;;;;;;5041021;28;20193;-82
2021/03/31 09:45:08;;;;;;;15.53;8.07;;;;;;;;;;5052551;28;20625;-82
2021/03/31 09:48:12;;;;;;;11.23;7.80;;;;;;;;;;5052378;28;20187;-83
2021/03/31 09:51:16;;;;;;;9.50;6.80;;;;;;;;;;5053445;28;20180;-82
2021/03/31 09:54:27;;;;;;;12.00;6.43;;;;;;;;;;5030413;28;20184;-82
2021/03/31 09:57:31;;;;;;;11.52;6.72;;;;;;;;;;5052189;28;20181;-82
2021/03/31 10:00:38;;;;;;;17.55;6.80;;;;;;;;;;5042873;28;20200;-86
2021/03/31 10:03:43;;;;;;;11.27;6.30;;;;;;;;;;5044749;28;20519;-86
2021/03/31 10:07:09;;;;;;;9.70;6.45;;;;;;;;;;5033420;28;20177;-87
2021/03/31 10:10:13;;;;;;;11.07;6.40;;;;;;;;;;5049311;23;20242;-85
2021/03/31 10:13:20;;;;;;;11.63;5.82;;;;;;;;;;5037182;28;20194;-84
2021/03/31 10:16:35;;;;;;;9.73;6.38;;;;;;;;;;5035665;28;20203;-85
2021/03/31 10:19:40;;;;;;;9.20;6.30;;;;;;;;;;5056984;28;20230;-84
2021/03/31 10:22:52;;;;;;;13.18;7.03;;;;;;;;;;5053214;28;20204;-85
2021/03/31 10:26:17;;;;;;;9.65;6.32;;;;;;;;;;5044781;28;20526;-84
2021/03/31 10:29:23;;;;;;;12.00;5.70;;;;;;;;;;5044816;28;20213;-84
2021/03/31 10:32:28;;;;;;;8.73;5.47;;;;;;;;;;5057908;28;20191;-84
2021/03/31 10:35:39;;;;;;;9.60;6.25;;;;;;;;;;5056651;28;20186;-84
2021/03/31 10:39:10;;;;;;;9.30;6.03;;;;;;;;;;5056487;28;20665;-85
2021/03/31 10:49:09;;;;;;;7.63;5.28;;;;;;;;;;5044793;28;20218;-84
2021/03/31 10:55:47;;;;;;;12.63;5.75;;;;;;;;;;5057012;28;20186;-84
2021/03/31 10:58:51;;;;;;;10.25;6.38;;;;;;;;;;5044340;28;20219;-84
2021/03/31 11:01:56;;;;;;;10.15;6.30;;;;;;;;;;5044182;28;20203;-84
2021/03/31 11:05:00;;;;;;;11.20;6.22;;;;;;;;;;5056150;28;20199;-84
2021/03/31 11:08:04;;;;;;;11.98;5.90;;;;;;;;;;5044422;28;20187;-84
2021/03/31 11:11:09;;;;;;;7.05;4.85;;;;;;;;;;5033276;28;20180;-84
2021/03/31 11:14:16;;;;;;;13.07;6.90;;;;;;;;;;5056115;28;20177;-84
2021/03/31 11:17:33;;;;;;;11.35;6.53;;;;;;;;;;5037705;28;20211;-84
2021/03/31 11:27:04;;;;;;;13.45;7.40;;;;;;;;;;5043874;28;20179;-83
2021/03/31 11:30:10;;;;;;;10.15;6.40;;;;;;;;;;5043966;28;20209;-83
2021/03/31 11:33:15;;;;;;;14.23;6.72;;;;;;;;;;5055606;28;20189;-83
2021/03/31 11:36:19;;;;;;;13.10;6.93;;;;;;;;;;5043697;28;20628;-83
2021/03/31 11:39:24;;;;;;;33.58;7.32;;;;;;;;;;5043752;28;20228;-84
2021/03/31 11:42:28;;;;;;;13.25;6.82;;;;;;;;;;5056235;28;20186;-83
2021/03/31 11:45:33;;;;;;;15.68;8.18;;;;;;;;;;5003980;28;20182;-83
2021/03/31 11:48:37;;;;;;;14.52;7.47;;;;;;;;;;5015478;28;20189;-84
2021/03/31 11:51:42;;;;;;;8.93;6.38;;;;;;;;;;5026704;28;20180;-83
2021/03/31 11:54:46;;;;;;;10.95;6.25;;;;;;;;;;5003699;28;20192;-84
2021/03/31 11:57:51;;;;;;;12.30;6.68;;;;;;;;;;5026498;28;20204;-83
2021/03/31 12:00:55;;;;;;;14.85;7.65;;;;;;;;;;5014802;28;20601;-83
2021/03/31 12:03:59;;;;;;;9.00;5.95;;;;;;;;;;5015418;28;20179;-83
2021/03/31 12:07:04;;;;;;;14.13;6.05;;;;;;;;;;5014519;28;20200;-84
2021/03/31 12:10:10;;;;;;;11.52;6.50;;;;;;;;;;5014143;28;20567;-84
2021/03/31 12:13:14;;;;;;;11.93;6.75;;;;;;;;;;5002917;28;20205;-84
2021/03/31 12:16:18;;;;;;;18.80;7.50;;;;;;;;;;5003163;28;20188;-84
2021/03/31 12:19:23;;;;;;;9.98;6.35;;;;;;;;;;5003027;28;20561;-84
2021/03/31 12:22:27;;;;;;;10.10;7.07;;;;;;;;;;5002943;28;20185;-84
2021/03/31 12:25:33;;;;;;;12.20;6.07;;;;;;;;;;5014126;28;20193;-86
2021/03/31 12:28:37;;;;;;;16.52;6.68;;;;;;;;;;5002845;28;20179;-84
2021/03/31 12:31:41;;;;;;;15.70;7.13;;;;;;;;;;5002850;28;20196;-84
2021/03/31 12:34:46;;;;;;;8.90;6.20;;;;;;;;;;5014197;28;20203;-84
2021/03/31 12:37:50;;;;;;;13.15;6.68;;;;;;;;;;5025256;28;20180;-84
2021/03/31 12:40:54;;;;;;;13.38;6.35;;;;;;;;;;5002392;28;20227;-84
2021/03/31 12:43:59;;;;;;;11.30;6.43;;;;;;;;;;4991451;28;20198;-84
2021/03/31 12:47:03;;;;;;;15.38;7.07;;;;;;;;;;5014049;28;20180;-84
2021/03/31 12:50:11;;;;;;;9.02;5.80;;;;;;;;;;5024995;28;20579;-84
2021/03/31 12:53:23;;;;;;;17.60;6.72;;;;;;;;;;5002512;28;20546;-84
2021/03/31 12:56:28;;;;;;;11.98;5.65;;;;;;;;;;5013708;28;20178;-84
2021/03/31 12:59:33;;;;;;;16.83;5.85;;;;;;;;;;5002044;28;20217;-84
2021/03/31 13:02:37;;;;;;;10.52;5.55;;;;;;;;;;5002478;28;20226;-84
2021/03/31 13:05:41;;;;;;;9.15;5.60;;;;;;;;;;4991154;28;20183;-84
2021/03/31 13:08:50;;;;;;;7.43;5.32;;;;;;;;;;5013307;28;20201;-84
2021/03/31 13:11:55;;;;;;;9.75;5.18;;;;;;;;;;4991030;28;20183;-84
2021/03/31 13:31:30;;;;;;;9.80;6.75;;;;;;;;;;5024783;28;20179;-84
2021/03/31 13:34:40;;;;;;;9.15;6.65;;;;;;;;;;5013262;28;20544;-84
2021/03/31 13:37:52;;;;;;;11.52;6.15;;;;;;;;;;5006078;28;20182;-84
2021/03/31 13:40:57;;;;;;;7.72;5.63;;;;;;;;;;5017402;28;20228;-84
2021/03/31 13:44:02;;;;;;;11.95;6.35;;;;;;;;;;5017477;28;20183;-84
2021/03/31 13:47:10;;;;;;;11.88;5.80;;;;;;;;;;5005913;28;20180;-84
2021/03/31 13:50:15;;;;;;;13.85;5.25;;;;;;;;;;5016759;28;20217;-84
2021/03/31 13:53:21;;;;;;;9.23;5.00;;;;;;;;;;4994711;28;20626;-84
2021/03/31 13:56:34;;;;;;;10.88;5.68;;;;;;;;;;5005648;28;20184;-84
2021/03/31 13:59:39;;;;;;;10.40;6.20;;;;;;;;;;5005560;28;20603;-84
2021/03/31 14:02:44;;;;;;;7.82;5.57;;;;;;;;;;5005685;28;20184;-84
2021/03/31 14:05:49;;;;;;;10.27;5.90;;;;;;;;;;5005558;28;20192;-83
2021/03/31 14:08:53;;;;;;;8.75;4.97;;;;;;;;;;5005114;28;20665;-84
2021/03/31 14:11:57;;;;;;;6.35;4.28;;;;;;;;;;4994244;28;20177;-84
2021/03/31 14:15:03;;;;;;;15.57;4.95;;;;;;;;;;5005254;28;20188;-84
2021/03/31 14:18:08;;;;;;;8.50;4.93;;;;;;;;;;5005536;28;20654;-84
2021/03/31 14:21:12;;;;;;;9.90;5.38;;;;;;;;;;4994113;28;20206;-84
2021/03/31 14:24:17;;;;;;;12.65;6.97;;;;;;;;;;5016723;28;20518;-84
2021/03/31 14:27:21;;;;;;;9.23;5.53;;;;;;;;;;5005117;28;20184;-84
2021/03/31 14:30:26;;;;;;;10.68;5.55;;;;;;;;;;4993685;28;20217;-84
2021/03/31 14:33:30;;;;;;;8.93;5.65;;;;;;;;;;5005284;28;20185;-84
2021/03/31 14:36:35;;;;;;;12.98;6.15;;;;;;;;;;5004984;28;20176;-84
2021/03/31 14:39:40;;;;;;;11.40;5.15;;;;;;;;;;5027221;28;20217;-84
2021/03/31 14:42:44;;;;;;;10.50;6.22;;;;;;;;;;5016243;28;20184;-84
2021/03/31 14:45:48;;;;;;;13.32;6.07;;;;;;;;;;5016194;28;20628;-84
2021/03/31 14:48:52;;;;;;;11.60;6.65;;;;;;;;;;5004268;28;20675;-87
2021/03/31 14:55:33;;;;;;;15.32;6.53;;;;;;;;;;5027979;28;20187;-84
2021/03/31 15:01:59;;;;;;;13.88;7.07;;;;;;;;;;5004922;28;20215;-84
2021/03/31 15:05:05;;;;;;;19.48;6.65;;;;;;;;;;5016105;28;20184;-85
2021/03/31 15:08:10;;;;;;;10.13;6.57;;;;;;;;;;4993850;28;20184;-84
2021/03/31 15:11:14;;;;;;;30.48;7.53;;;;;;;;;;4993731;28;20182;-84
2021/03/31 15:14:18;;;;;;;10.07;6.60;;;;;;;;;;5016007;28;20201;-84
2021/03/31 15:17:23;;;;;;;15.18;7.63;;;;;;;;;;5016491;28;20197;-85
2021/03/31 15:21:18;;;;;;;13.02;6.85;;;;;;;;;;4992961;28;20229;-84
2021/03/31 15:23:54;;;;;;;15.43;6.22;;;;;;;;;;5010187;28;20184;-84
2021/03/31 15:26:59;;;;;;;11.43;6.00;;;;;;;;;;4993214;28;20179;-85
2021/03/31 15:30:05;;;;;;;11.00;5.80;;;;;;;;;;5027249;28;20217;-84
2021/03/31 15:33:09;;;;;;;11.00;5.93;;;;;;;;;;5015589;28;20195;-84
2021/03/31 15:36:13;;;;;;;10.03;5.50;;;;;;;;;;5004238;28;20565;-84
2021/03/31 15:39:17;;;;;;;12.80;7.27;;;;;;;;;;5015995;28;20223;-84
2021/03/31 15:42:22;;;;;;;15.43;6.50;;;;;;;;;;5004219;28;20176;-84
2021/03/31 15:45:26;;;;;;;10.93;6.37;;;;;;;;;;5004099;28;20182;-84
2021/03/31 15:48:30;;;;;;;23.33;6.57;;;;;;;;;;5004433;28;20178;-84
2021/03/31 15:51:34;;;;;;;9.73;6.17;;;;;;;;;;4992831;28;20183;-84
2021/03/31 15:54:38;;;;;;;11.13;7.00;;;;;;;;;;5004059;28;20205;-84
2021/03/31 15:57:42;;;;;;;19.07;7.13;;;;;;;;;;5014503;28;20193;-84
2021/03/31 16:00:46;;;;;;;57.60;8.60;;;;;;;;;;5003816;28;20263;-83
2021/03/31 16:04:15;;;;;;;42.83;8.30;;;;;;;;;;5014674;28;20203;-83
2021/03/31 16:07:32;;;;;;;42.33;8.53;;;;;;;;;;5003034;28;20182;-83
2021/03/31 16:10:36;;;;;;;12.17;8.03;;;;;;;;;;5003721;28;20225;-83
2021/03/31 16:13:40;;;;;;;12.13;8.27;;;;;;;;;;5014262;28;20181;-83
2021/03/31 16:16:44;;;;;;;12.30;7.77;;;;;;;;;;5003183;28;20197;-83
2021/03/31 16:19:48;;;;;;;12.00;7.30;;;;;;;;;;5025529;28;20221;-83
2021/03/31 16:22:53;;;;;;;12.17;6.80;;;;;;;;;;5014114;28;20177;-84
2021/03/31 16:25:57;;;;;;;10.47;6.33;;;;;;;;;;5025611;28;20186;-83
2021/03/31 16:32:21;;;;;;;11.93;6.17;;;;;;;;;;5004040;28;20190;-83
2021/03/31 16:35:25;;;;;;;12.77;5.63;;;;;;;;;;5015550;28;20197;-83
2021/03/31 16:38:30;;;;;;;12.73;9.07;;;;;;;;;;5004609;28;20182;-83
2021/03/31 16:41:35;;;;;;;17.83;8.33;;;;;;;;;;4993411;28;20213;-83
2021/03/31 16:44:39;;;;;;;28.33;7.20;;;;;;;;;;5005013;28;20530;-83
2021/03/31 16:47:45;;;;;;;23.63;10.50;;;;;;;;;;4993934;28;20177;-83
2021/03/31 16:50:49;;;;;;;27.50;14.10;;;;;;;;;;4994214;28;20224;-84
2021/03/31 16:53:53;;;;;;;17.03;10.70;;;;;;;;;;5005249;28;20648;-83
2021/03/31 16:56:58;;;;;;;20.57;7.63;;;;;;;;;;5004102;28;20703;-82
2021/03/31 17:00:07;;;;;;;21.03;6.97;;;;;;;;;;5015483;28;20217;-83
2021/03/31 17:03:11;;;;;;;36.87;8.00;;;;;;;;;;4992868;28;20609;-83
2021/03/31 17:06:15;;;;;;;26.83;7.10;;;;;;;;;;5015430;28;20181;-84
2021/03/31 17:09:19;;;;;;;17.60;6.17;;;;;;;;;;5049267;22;20233;-75
2021/03/31 17:12:24;;;;;;;14.90;6.17;;;;;;;;;;5101309;28;20214;-75
2021/03/31 17:15:30;;;;;;;12.23;5.23;;;;;;;;;;5114040;28;20194;-76
2021/03/31 17:18:35;;;;;;;14.50;5.73;;;;;;;;;;5101650;28;20174;-76
2021/03/31 17:21:39;;;;;;;10.33;5.43;;;;;;;;;;5114270;28;20225;-76
2021/03/31 17:24:43;;;;;;;10.20;5.30;;;;;;;;;;5113702;28;20193;-75
2021/03/31 17:27:47;;;;;;;15.57;4.93;;;;;;;;;;5100863;28;20182;-75
2021/03/31 17:30:51;;;;;;;15.17;4.97;;;;;;;;;;5113222;28;20170;-75
2021/03/31 17:33:56;;;;;;;21.27;5.30;;;;;;;;;;5100398;28;20201;-75
2021/03/31 17:37:00;;;;;;;10.73;4.47;;;;;;;;;;5101999;28;20202;-75
2021/03/31 17:40:06;;;;;;;10.27;4.00;;;;;;;;;;5100982;28;20202;-75
2021/03/31 17:43:10;;;;;;;7.37;3.67;;;;;;;;;;5100929;28;20206;-75
2021/03/31 17:46:14;;;;;;;13.33;4.17;;;;;;;;;;5101104;28;20205;-75
2021/03/31 17:49:18;;;;;;;12.67;4.13;;;;;;;;;;5100914;28;20174;-76
2021/03/31 17:52:23;;;;;;;9.57;4.20;;;;;;;;;;5113185;28;20206;-76
2021/03/31 17:55:27;;;;;;;5.37;3.73;;;;;;;;;;5100994;28;20545;-76
2021/03/31 17:58:31;;;;;;;10.33;4.07;;;;;;;;;;5114023;28;20198;-76
2021/03/31 18:01:38;;;;;;;8.20;4.13;;;;;;;;;;5113036;28;20222;-75
2021/03/31 18:04:42;;;;;;;8.33;3.80;;;;;;;;;;5101320;28;20182;-76
2021/03/31 18:07:47;;;;;;;10.17;4.10;;;;;;;;;;5114052;28;20186;-75
2021/03/31 18:10:51;;;;;;;8.10;4.00;;;;;;;;;;5113182;28;20206;-75
2021/03/31 18:13:55;;;;;;;8.40;3.83;;;;;;;;;;5100926;28;20174;-75
2021/03/31 18:17:01;;;;;;;10.00;4.30;;;;;;;;;;5113196;28;20178;-75
2021/03/31 18:20:06;;;;;;;10.73;4.33;;;;;;;;;;5113490;28;20174;-76
2021/03/31 18:23:10;;;;;;;9.37;5.13;;;;;;;;;;5116638;28;20202;-76
2021/03/31 18:26:15;;;;;;;11.00;4.90;;;;;;;;;;5093038;28;20198;-75
2021/03/31 18:29:19;;;;;;;10.03;4.30;;;;;;;;;;5117197;28;20198;-76
2021/03/31 18:32:25;;;;;;;9.73;4.80;;;;;;;;;;5117143;28;20214;-76
2021/03/31 18:35:29;;;;;;;12.77;5.27;;;;;;;;;;5104546;28;20178;-75
2021/03/31 18:38:34;;;;;;;11.20;5.13;;;;;;;;;;5117478;28;20194;-75
2021/03/31 18:44:48;;;;;;;11.60;5.20;;;;;;;;;;5117139;28;20521;-75
2021/03/31 18:47:52;;;;;;;13.67;5.10;;;;;;;;;;5104449;28;20189;-75
2021/03/31 18:50:57;;;;;;;10.77;5.80;;;;;;;;;;5116817;28;20198;-75
2021/03/31 18:54:01;;;;;;;8.63;4.83;;;;;;;;;;5104491;28;20178;-76
2021/03/31 18:57:06;;;;;;;8.93;5.13;;;;;;;;;;5103866;28;20178;-76
2021/03/31 19:00:10;;;;;;;10.80;5.57;;;;;;;;;;5116762;28;20522;-76
2021/03/31 19:03:15;;;;;;;11.43;5.47;;;;;;;;;;5103532;28;20222;-76
2021/03/31 19:06:19;;;;;;;10.53;5.40;;;;;;;;;;5104084;28;20183;-75
2021/03/31 19:12:46;;;;;;;12.10;6.23;;;;;;;;;;5104125;28;20210;-75
2021/03/31 19:15:50;;;;;;;12.10;6.20;;;;;;;;;;5116497;28;20178;-76